Durango, CO

9:14 AM MDT on March 23, 2017 (GMT -0600)
Historic Durango | | Change Station

Elev 6594 ft 37.27 °N, 107.87 °W | Updated 34 seconds ago

Overcast
Overcast
46.2 °F
Feels Like 46 °F
N
2.9
Wind Variable Wind from East
Gusts 11.7 mph

Today
High -- | Low -- °F
--% Chance of Precip.
Yesterday
High -- | Low -- °F
Precip. -- in
Pressure 29.73 in
Visibility 10.0 miles
Clouds Few 4700 ft
Mostly Cloudy 6500 ft
Windchill 46 °F
Dew Point 33 °F
Humidity 61%
Rainfall 0.00 in
Snow Depth Not available.
7:10 AM 7:26 PM
Waning Crescent, 23% visible
METAR KDRO 231453Z AUTO 16012KT 10SM FEW047 BKN065 09/M02 A2986 RMK AO2 SLP067 T00891017 58005
Pressure 29.73 in
Visibility 10.0 miles
Clouds Few 4700 ft
Mostly Cloudy 6500 ft
Windchill 46 °F
Dew Point 33 °F
Humidity 61%
Rainfall 0.00 in
Snow Depth Not available.
7:10 AM 7:26 PM
Waning Crescent, 23% visible
METAR KDRO 231453Z AUTO 16012KT 10SM FEW047 BKN065 09/M02 A2986 RMK AO2 SLP067 T00891017 58005

Get Severe Weather Alerts

Thanks for signing up!

Be on the lookout for a verification email in your inbox.

You'll start receiving the daily forecast at 8 AM.

×

10-Day Weather Forecast

Almanac

Astronomy

Mar. 23, 2017 Rise Set
Actual Time
Civil Twilight
Nautical Twilight
Astronomical Twilight
Moon
Length of Visible Light
Length of Day
Tomorrow will be .
, % of the Moon is Illuminated

Today's Extremes

State Highs State Lows

Community

WunderPhotos

Upload Photos

1,962,540 photos uploaded!

WunderBlog® & News

Nearby

Air Quality

  Air Quality AQ Index Pollutant
Not available.

Snow Depth

Station Depth Elevation

Earthquake Activity

City Distance Mag. Time & Date
Minimum magnitude displayed is 2.5.

Earthquake Activity

City Distance Mag. Time & Date
Minimum magnitude displayed is 2.5.

Coastal Water Temperatures

Place Temperature

Stations

Nearby Weather Stations

Station Location Temp. Windchill Dew Point Humidity Wind Precip. Elev Updated Type
                   

Watches & Warnings

There are currently no watches in effect.